sensor_id;sensor_type;location;lat;lon;timestamp;temperature;humidity
73777;DHT22;62088;50.240;2.696;2023-08-06T00:02:23;15.40;85.90
73777;DHT22;62088;50.240;2.696;2023-08-06T00:04:50;15.40;85.90
73777;DHT22;62088;50.240;2.696;2023-08-06T00:07:17;15.40;85.90
73777;DHT22;62088;50.240;2.696;2023-08-06T00:09:44;15.40;85.90
73777;DHT22;62088;50.240;2.696;2023-08-06T00:12:11;15.40;85.90
73777;DHT22;62088;50.240;2.696;2023-08-06T00:14:38;15.40;85.90
73777;DHT22;62088;50.240;2.696;2023-08-06T00:17:05;15.40;85.90
73777;DHT22;62088;50.240;2.696;2023-08-06T00:19:32;15.30;85.90
73777;DHT22;62088;50.240;2.696;2023-08-06T00:21:59;15.30;85.90
73777;DHT22;62088;50.240;2.696;2023-08-06T00:24:26;15.30;86.00
73777;DHT22;62088;50.240;2.696;2023-08-06T00:26:53;15.30;86.00
73777;DHT22;62088;50.240;2.696;2023-08-06T00:29:20;15.20;86.00
73777;DHT22;62088;50.240;2.696;2023-08-06T00:31:47;15.30;86.10
73777;DHT22;62088;50.240;2.696;2023-08-06T00:34:15;15.20;86.10
73777;DHT22;62088;50.240;2.696;2023-08-06T00:36:42;15.20;86.20
73777;DHT22;62088;50.240;2.696;2023-08-06T00:39:09;15.20;86.30
73777;DHT22;62088;50.240;2.696;2023-08-06T00:41:36;15.20;86.30
73777;DHT22;62088;50.240;2.696;2023-08-06T00:44:04;15.20;86.30
73777;DHT22;62088;50.240;2.696;2023-08-06T00:46:33;15.20;86.30
73777;DHT22;62088;50.240;2.696;2023-08-06T00:49:00;15.20;86.40
73777;DHT22;62088;50.240;2.696;2023-08-06T00:51:28;15.30;86.40
73777;DHT22;62088;50.240;2.696;2023-08-06T00:53:56;15.20;86.40
73777;DHT22;62088;50.240;2.696;2023-08-06T00:56:24;15.20;86.40
73777;DHT22;62088;50.240;2.696;2023-08-06T00:58:52;15.30;86.40
73777;DHT22;62088;50.240;2.696;2023-08-06T01:01:19;15.20;86.40
73777;DHT22;62088;50.240;2.696;2023-08-06T01:03:46;15.30;86.50
73777;DHT22;62088;50.240;2.696;2023-08-06T01:06:15;15.30;86.40
73777;DHT22;62088;50.240;2.696;2023-08-06T01:09:07;15.30;86.40
73777;DHT22;62088;50.240;2.696;2023-08-06T01:14:52;15.30;86.40
73777;DHT22;62088;50.240;2.696;2023-08-06T01:17:21;15.20;86.40
73777;DHT22;62088;50.240;2.696;2023-08-06T01:19:49;15.20;86.40
73777;DHT22;62088;50.240;2.696;2023-08-06T01:22:16;15.20;86.40
73777;DHT22;62088;50.240;2.696;2023-08-06T01:24:47;15.20;86.40
73777;DHT22;62088;50.240;2.696;2023-08-06T01:29:57;15.20;86.40
73777;DHT22;62088;50.240;2.696;2023-08-06T01:32:26;15.20;86.40
73777;DHT22;62088;50.240;2.696;2023-08-06T01:34:54;15.20;86.40
73777;DHT22;62088;50.240;2.696;2023-08-06T01:37:22;15.20;86.30
73777;DHT22;62088;50.240;2.696;2023-08-06T01:39:50;15.10;86.30
73777;DHT22;62088;50.240;2.696;2023-08-06T01:42:17;15.20;86.40
73777;DHT22;62088;50.240;2.696;2023-08-06T01:44:46;15.20;86.30
73777;DHT22;62088;50.240;2.696;2023-08-06T01:47:13;15.20;86.30
73777;DHT22;62088;50.240;2.696;2023-08-06T01:49:40;15.20;86.30
73777;DHT22;62088;50.240;2.696;2023-08-06T01:52:08;15.20;86.30
73777;DHT22;62088;50.240;2.696;2023-08-06T01:54:35;15.10;86.20
73777;DHT22;62088;50.240;2.696;2023-08-06T01:57:02;15.10;86.20
73777;DHT22;62088;50.240;2.696;2023-08-06T01:59:29;15.10;86.10
73777;DHT22;62088;50.240;2.696;2023-08-06T02:01:56;15.10;86.10
73777;DHT22;62088;50.240;2.696;2023-08-06T02:04:24;15.00;86.00
73777;DHT22;62088;50.240;2.696;2023-08-06T02:06:52;15.00;86.00
73777;DHT22;62088;50.240;2.696;2023-08-06T02:09:19;15.00;85.90
73777;DHT22;62088;50.240;2.696;2023-08-06T02:11:46;15.00;85.90
73777;DHT22;62088;50.240;2.696;2023-08-06T02:14:13;14.90;85.80
73777;DHT22;62088;50.240;2.696;2023-08-06T02:16:40;14.90;85.80
73777;DHT22;62088;50.240;2.696;2023-08-06T02:19:07;14.90;85.80
73777;DHT22;62088;50.240;2.696;2023-08-06T02:21:34;14.90;85.80
73777;DHT22;62088;50.240;2.696;2023-08-06T02:24:01;14.90;85.80
73777;DHT22;62088;50.240;2.696;2023-08-06T02:26:29;14.90;85.80
73777;DHT22;62088;50.240;2.696;2023-08-06T02:28:56;14.90;85.80
73777;DHT22;62088;50.240;2.696;2023-08-06T02:31:23;14.80;85.80
73777;DHT22;62088;50.240;2.696;2023-08-06T02:33:50;14.80;85.80
73777;DHT22;62088;50.240;2.696;2023-08-06T02:36:17;14.80;85.80
73777;DHT22;62088;50.240;2.696;2023-08-06T02:38:44;14.80;85.80
73777;DHT22;62088;50.240;2.696;2023-08-06T02:41:11;14.80;85.80
73777;DHT22;62088;50.240;2.696;2023-08-06T02:43:38;14.80;85.80
73777;DHT22;62088;50.240;2.696;2023-08-06T02:46:06;14.70;85.80
73777;DHT22;62088;50.240;2.696;2023-08-06T02:48:33;14.70;85.70
73777;DHT22;62088;50.240;2.696;2023-08-06T02:51:01;14.70;85.70
73777;DHT22;62088;50.240;2.696;2023-08-06T02:53:30;14.70;85.70
73777;DHT22;62088;50.240;2.696;2023-08-06T02:56:02;14.60;85.70
73777;DHT22;62088;50.240;2.696;2023-08-06T02:59:02;14.60;85.70
73777;DHT22;62088;50.240;2.696;2023-08-06T03:01:42;14.60;85.70
73777;DHT22;62088;50.240;2.696;2023-08-06T03:04:17;14.60;85.70
73777;DHT22;62088;50.240;2.696;2023-08-06T03:06:47;14.60;85.60
73777;DHT22;62088;50.240;2.696;2023-08-06T03:09:16;14.50;85.60
73777;DHT22;62088;50.240;2.696;2023-08-06T03:11:44;14.50;85.60
73777;DHT22;62088;50.240;2.696;2023-08-06T03:14:14;14.40;85.50
73777;DHT22;62088;50.240;2.696;2023-08-06T03:16:42;14.40;85.50
73777;DHT22;62088;50.240;2.696;2023-08-06T03:19:11;14.40;85.50
73777;DHT22;62088;50.240;2.696;2023-08-06T03:21:38;14.40;85.50
73777;DHT22;62088;50.240;2.696;2023-08-06T03:24:06;14.40;85.50
73777;DHT22;62088;50.240;2.696;2023-08-06T03:26:34;14.40;85.50
73777;DHT22;62088;50.240;2.696;2023-08-06T03:29:02;14.30;85.50
73777;DHT22;62088;50.240;2.696;2023-08-06T03:31:32;14.30;85.50
73777;DHT22;62088;50.240;2.696;2023-08-06T03:34:00;14.30;85.50
73777;DHT22;62088;50.240;2.696;2023-08-06T03:36:29;14.20;85.50
73777;DHT22;62088;50.240;2.696;2023-08-06T03:38:56;14.20;85.40
73777;DHT22;62088;50.240;2.696;2023-08-06T03:41:24;14.20;85.40
73777;DHT22;62088;50.240;2.696;2023-08-06T03:43:51;14.20;85.50
73777;DHT22;62088;50.240;2.696;2023-08-06T03:46:24;14.20;85.50
73777;DHT22;62088;50.240;2.696;2023-08-06T03:48:52;14.20;85.50
73777;DHT22;62088;50.240;2.696;2023-08-06T03:51:19;14.10;85.50
73777;DHT22;62088;50.240;2.696;2023-08-06T03:53:48;14.20;85.50
73777;DHT22;62088;50.240;2.696;2023-08-06T03:56:15;14.20;85.60
73777;DHT22;62088;50.240;2.696;2023-08-06T03:58:42;14.10;85.60
73777;DHT22;62088;50.240;2.696;2023-08-06T04:01:09;14.10;85.60
73777;DHT22;62088;50.240;2.696;2023-08-06T04:03:42;14.10;85.60
73777;DHT22;62088;50.240;2.696;2023-08-06T04:06:09;14.20;85.70
73777;DHT22;62088;50.240;2.696;2023-08-06T04:08:36;14.10;85.70
73777;DHT22;62088;50.240;2.696;2023-08-06T04:11:03;14.20;85.70
73777;DHT22;62088;50.240;2.696;2023-08-06T04:13:30;14.10;85.70
73777;DHT22;62088;50.240;2.696;2023-08-06T04:16:02;14.10;85.80
73777;DHT22;62088;50.240;2.696;2023-08-06T04:18:30;14.20;85.80
73777;DHT22;62088;50.240;2.696;2023-08-06T04:20:57;14.10;85.70
73777;DHT22;62088;50.240;2.696;2023-08-06T04:23:24;14.20;85.70
73777;DHT22;62088;50.240;2.696;2023-08-06T04:25:58;14.10;85.70
73777;DHT22;62088;50.240;2.696;2023-08-06T04:28:30;14.20;85.70
73777;DHT22;62088;50.240;2.696;2023-08-06T04:30:59;14.10;85.70
73777;DHT22;62088;50.240;2.696;2023-08-06T04:33:27;14.10;85.70
73777;DHT22;62088;50.240;2.696;2023-08-06T04:35:57;14.10;85.70
73777;DHT22;62088;50.240;2.696;2023-08-06T04:38:26;14.10;85.70
73777;DHT22;62088;50.240;2.696;2023-08-06T04:40:54;14.10;85.60
73777;DHT22;62088;50.240;2.696;2023-08-06T04:43:22;14.10;85.60
73777;DHT22;62088;50.240;2.696;2023-08-06T04:45:50;14.10;85.60
73777;DHT22;62088;50.240;2.696;2023-08-06T04:48:18;14.10;85.60
73777;DHT22;62088;50.240;2.696;2023-08-06T04:50:46;14.10;85.60
73777;DHT22;62088;50.240;2.696;2023-08-06T04:53:13;14.10;85.60
73777;DHT22;62088;50.240;2.696;2023-08-06T04:55:41;14.00;85.50
73777;DHT22;62088;50.240;2.696;2023-08-06T04:58:09;14.10;85.50
73777;DHT22;62088;50.240;2.696;2023-08-06T05:00:37;14.00;85.50
73777;DHT22;62088;50.240;2.696;2023-08-06T05:03:05;13.90;85.40
73777;DHT22;62088;50.240;2.696;2023-08-06T05:05:32;13.90;85.40
73777;DHT22;62088;50.240;2.696;2023-08-06T05:07:59;13.90;85.50
73777;DHT22;62088;50.240;2.696;2023-08-06T05:10:27;13.90;85.50
73777;DHT22;62088;50.240;2.696;2023-08-06T05:12:54;13.90;85.50
73777;DHT22;62088;50.240;2.696;2023-08-06T05:15:21;13.90;85.50
73777;DHT22;62088;50.240;2.696;2023-08-06T05:17:48;13.90;85.50
73777;DHT22;62088;50.240;2.696;2023-08-06T05:20:15;13.90;85.50
73777;DHT22;62088;50.240;2.696;2023-08-06T05:22:43;13.90;85.50
73777;DHT22;62088;50.240;2.696;2023-08-06T05:25:13;13.80;85.50
73777;DHT22;62088;50.240;2.696;2023-08-06T05:27:41;13.90;85.50
73777;DHT22;62088;50.240;2.696;2023-08-06T05:30:09;13.80;85.40
73777;DHT22;62088;50.240;2.696;2023-08-06T05:32:36;13.80;85.40
73777;DHT22;62088;50.240;2.696;2023-08-06T05:35:03;13.80;85.40
73777;DHT22;62088;50.240;2.696;2023-08-06T05:37:30;13.80;85.40
73777;DHT22;62088;50.240;2.696;2023-08-06T05:39:57;13.80;85.50
73777;DHT22;62088;50.240;2.696;2023-08-06T05:42:24;13.80;85.40
73777;DHT22;62088;50.240;2.696;2023-08-06T05:44:51;13.80;85.50
73777;DHT22;62088;50.240;2.696;2023-08-06T05:47:19;13.80;85.40
73777;DHT22;62088;50.240;2.696;2023-08-06T05:49:46;13.80;85.40
73777;DHT22;62088;50.240;2.696;2023-08-06T05:52:13;13.70;85.40
73777;DHT22;62088;50.240;2.696;2023-08-06T05:54:40;13.80;85.40
73777;DHT22;62088;50.240;2.696;2023-08-06T05:57:07;13.70;85.40
73777;DHT22;62088;50.240;2.696;2023-08-06T05:59:34;13.80;85.30
73777;DHT22;62088;50.240;2.696;2023-08-06T06:02:01;13.70;85.30
73777;DHT22;62088;50.240;2.696;2023-08-06T06:04:28;13.80;85.30
73777;DHT22;62088;50.240;2.696;2023-08-06T06:06:56;13.80;85.30
73777;DHT22;62088;50.240;2.696;2023-08-06T06:09:23;13.70;85.20
73777;DHT22;62088;50.240;2.696;2023-08-06T06:11:50;13.70;85.20
73777;DHT22;62088;50.240;2.696;2023-08-06T06:14:19;13.70;85.20
73777;DHT22;62088;50.240;2.696;2023-08-06T06:16:46;13.70;85.20
73777;DHT22;62088;50.240;2.696;2023-08-06T06:19:13;13.80;85.20
73777;DHT22;62088;50.240;2.696;2023-08-06T06:21:40;13.70;85.20
73777;DHT22;62088;50.240;2.696;2023-08-06T06:24:07;13.80;85.20
73777;DHT22;62088;50.240;2.696;2023-08-06T06:26:35;13.80;85.20
73777;DHT22;62088;50.240;2.696;2023-08-06T06:29:02;13.80;85.20
73777;DHT22;62088;50.240;2.696;2023-08-06T06:31:31;13.80;85.20
73777;DHT22;62088;50.240;2.696;2023-08-06T06:33:58;13.80;85.20
73777;DHT22;62088;50.240;2.696;2023-08-06T06:36:25;13.80;85.10
73777;DHT22;62088;50.240;2.696;2023-08-06T06:38:52;13.80;85.10
73777;DHT22;62088;50.240;2.696;2023-08-06T06:41:20;13.80;85.00
73777;DHT22;62088;50.240;2.696;2023-08-06T06:43:46;13.80;85.00
73777;DHT22;62088;50.240;2.696;2023-08-06T06:46:14;13.80;85.00
73777;DHT22;62088;50.240;2.696;2023-08-06T06:48:41;13.90;85.00
73777;DHT22;62088;50.240;2.696;2023-08-06T06:51:08;13.90;85.00
73777;DHT22;62088;50.240;2.696;2023-08-06T06:53:35;13.80;84.90
73777;DHT22;62088;50.240;2.696;2023-08-06T06:56:03;13.90;84.90
73777;DHT22;62088;50.240;2.696;2023-08-06T06:58:31;13.90;84.80
73777;DHT22;62088;50.240;2.696;2023-08-06T07:00:59;13.90;84.80
73777;DHT22;62088;50.240;2.696;2023-08-06T07:03:26;13.90;84.80
73777;DHT22;62088;50.240;2.696;2023-08-06T07:05:57;13.90;84.80
73777;DHT22;62088;50.240;2.696;2023-08-06T07:08:26;13.90;84.80
73777;DHT22;62088;50.240;2.696;2023-08-06T07:11:03;13.90;84.70
73777;DHT22;62088;50.240;2.696;2023-08-06T07:13:31;14.00;84.70
73777;DHT22;62088;50.240;2.696;2023-08-06T07:15:58;14.00;84.60
73777;DHT22;62088;50.240;2.696;2023-08-06T07:18:25;14.00;84.60
73777;DHT22;62088;50.240;2.696;2023-08-06T07:20:54;14.10;84.50
73777;DHT22;62088;50.240;2.696;2023-08-06T07:23:23;14.10;84.50
73777;DHT22;62088;50.240;2.696;2023-08-06T07:25:50;14.20;84.40
73777;DHT22;62088;50.240;2.696;2023-08-06T07:28:18;14.20;84.40
73777;DHT22;62088;50.240;2.696;2023-08-06T07:30:45;14.20;84.30
73777;DHT22;62088;50.240;2.696;2023-08-06T07:33:13;14.20;84.20
73777;DHT22;62088;50.240;2.696;2023-08-06T07:35:40;14.30;84.10
73777;DHT22;62088;50.240;2.696;2023-08-06T07:38:07;14.20;84.00
73777;DHT22;62088;50.240;2.696;2023-08-06T07:40:36;14.20;83.90
73777;DHT22;62088;50.240;2.696;2023-08-06T07:43:04;14.30;83.80
73777;DHT22;62088;50.240;2.696;2023-08-06T07:45:35;14.30;83.60
73777;DHT22;62088;50.240;2.696;2023-08-06T07:48:04;14.30;83.60
73777;DHT22;62088;50.240;2.696;2023-08-06T07:50:31;14.30;83.60
73777;DHT22;62088;50.240;2.696;2023-08-06T07:52:58;14.30;83.60
73777;DHT22;62088;50.240;2.696;2023-08-06T07:55:25;14.40;83.60
73777;DHT22;62088;50.240;2.696;2023-08-06T07:57:53;14.30;83.50
73777;DHT22;62088;50.240;2.696;2023-08-06T08:00:20;14.40;83.50
73777;DHT22;62088;50.240;2.696;2023-08-06T08:02:48;14.40;83.40
73777;DHT22;62088;50.240;2.696;2023-08-06T08:05:15;14.40;83.30
73777;DHT22;62088;50.240;2.696;2023-08-06T08:07:42;14.40;83.30
73777;DHT22;62088;50.240;2.696;2023-08-06T08:10:11;14.40;83.20
73777;DHT22;62088;50.240;2.696;2023-08-06T08:12:38;14.50;83.30
73777;DHT22;62088;50.240;2.696;2023-08-06T08:15:05;14.50;83.20
73777;DHT22;62088;50.240;2.696;2023-08-06T08:17:32;14.50;82.90
73777;DHT22;62088;50.240;2.696;2023-08-06T08:20:01;14.60;82.60
73777;DHT22;62088;50.240;2.696;2023-08-06T08:22:29;14.60;82.00
73777;DHT22;62088;50.240;2.696;2023-08-06T08:24:56;14.60;82.00
73777;DHT22;62088;50.240;2.696;2023-08-06T08:27:23;14.70;81.90
73777;DHT22;62088;50.240;2.696;2023-08-06T08:29:50;14.70;81.80
73777;DHT22;62088;50.240;2.696;2023-08-06T08:32:17;14.70;81.80
73777;DHT22;62088;50.240;2.696;2023-08-06T08:34:44;14.70;81.70
73777;DHT22;62088;50.240;2.696;2023-08-06T08:37:12;14.80;81.60
73777;DHT22;62088;50.240;2.696;2023-08-06T08:39:40;14.80;81.60
73777;DHT22;62088;50.240;2.696;2023-08-06T08:42:09;14.80;81.60
73777;DHT22;62088;50.240;2.696;2023-08-06T08:44:36;14.90;81.60
73777;DHT22;62088;50.240;2.696;2023-08-06T08:47:11;14.90;81.60
73777;DHT22;62088;50.240;2.696;2023-08-06T08:49:40;14.90;81.50
73777;DHT22;62088;50.240;2.696;2023-08-06T08:52:10;14.90;81.60
73777;DHT22;62088;50.240;2.696;2023-08-06T08:54:41;14.90;81.70
73777;DHT22;62088;50.240;2.696;2023-08-06T08:57:10;15.10;81.70
73777;DHT22;62088;50.240;2.696;2023-08-06T08:59:37;15.20;81.70
73777;DHT22;62088;50.240;2.696;2023-08-06T09:02:05;15.30;81.60
73777;DHT22;62088;50.240;2.696;2023-08-06T09:04:35;15.40;81.60
73777;DHT22;62088;50.240;2.696;2023-08-06T09:07:07;15.50;81.50
73777;DHT22;62088;50.240;2.696;2023-08-06T09:09:38;15.60;81.10
73777;DHT22;62088;50.240;2.696;2023-08-06T09:12:22;15.80;80.70
73777;DHT22;62088;50.240;2.696;2023-08-06T09:14:50;15.90;80.40
73777;DHT22;62088;50.240;2.696;2023-08-06T09:17:25;15.90;80.00
73777;DHT22;62088;50.240;2.696;2023-08-06T09:19:52;15.90;79.50
73777;DHT22;62088;50.240;2.696;2023-08-06T09:22:20;16.00;79.30
73777;DHT22;62088;50.240;2.696;2023-08-06T09:24:51;16.00;79.00
73777;DHT22;62088;50.240;2.696;2023-08-06T09:27:18;16.00;78.70
73777;DHT22;62088;50.240;2.696;2023-08-06T09:29:45;16.10;78.60
73777;DHT22;62088;50.240;2.696;2023-08-06T09:32:16;16.10;78.60
73777;DHT22;62088;50.240;2.696;2023-08-06T09:34:43;16.20;78.50
73777;DHT22;62088;50.240;2.696;2023-08-06T09:37:18;16.30;78.50
73777;DHT22;62088;50.240;2.696;2023-08-06T09:39:47;16.40;78.40
73777;DHT22;62088;50.240;2.696;2023-08-06T09:42:15;16.40;78.00
73777;DHT22;62088;50.240;2.696;2023-08-06T09:44:43;16.40;77.60
73777;DHT22;62088;50.240;2.696;2023-08-06T09:47:11;16.50;77.60
73777;DHT22;62088;50.240;2.696;2023-08-06T09:49:46;16.50;77.60
73777;DHT22;62088;50.240;2.696;2023-08-06T09:52:18;16.60;77.30
73777;DHT22;62088;50.240;2.696;2023-08-06T09:54:47;16.60;76.80
73777;DHT22;62088;50.240;2.696;2023-08-06T09:57:15;16.60;76.60
73777;DHT22;62088;50.240;2.696;2023-08-06T09:59:43;16.70;76.60
73777;DHT22;62088;50.240;2.696;2023-08-06T10:02:13;16.80;76.50
73777;DHT22;62088;50.240;2.696;2023-08-06T10:04:45;16.90;76.20
73777;DHT22;62088;50.240;2.696;2023-08-06T10:07:23;16.90;75.80
73777;DHT22;62088;50.240;2.696;2023-08-06T10:09:51;17.00;75.70
73777;DHT22;62088;50.240;2.696;2023-08-06T10:24:23;17.10;75.70
73777;DHT22;62088;50.240;2.696;2023-08-06T10:26:50;17.60;71.90
73777;DHT22;62088;50.240;2.696;2023-08-06T10:29:36;17.60;72.10
73777;DHT22;62088;50.240;2.696;2023-08-06T10:32:04;17.60;72.00
73777;DHT22;62088;50.240;2.696;2023-08-06T10:37:20;17.60;71.50
73777;DHT22;62088;50.240;2.696;2023-08-06T10:39:49;17.60;71.80
73777;DHT22;62088;50.240;2.696;2023-08-06T10:42:21;17.60;72.20
73777;DHT22;62088;50.240;2.696;2023-08-06T10:45:17;17.70;71.80
73777;DHT22;62088;50.240;2.696;2023-08-06T10:47:45;17.70;71.70
73777;DHT22;62088;50.240;2.696;2023-08-06T10:50:15;17.60;71.50
73777;DHT22;62088;50.240;2.696;2023-08-06T10:52:47;17.70;71.50
73777;DHT22;62088;50.240;2.696;2023-08-06T10:55:21;17.70;71.10
73777;DHT22;62088;50.240;2.696;2023-08-06T10:57:48;17.80;71.70
73777;DHT22;62088;50.240;2.696;2023-08-06T11:00:16;17.90;71.80
73777;DHT22;62088;50.240;2.696;2023-08-06T11:02:43;18.00;71.80
73777;DHT22;62088;50.240;2.696;2023-08-06T11:05:13;18.10;71.60
73777;DHT22;62088;50.240;2.696;2023-08-06T11:07:40;18.10;70.80
73777;DHT22;62088;50.240;2.696;2023-08-06T11:10:09;18.20;70.70
73777;DHT22;62088;50.240;2.696;2023-08-06T11:12:37;18.10;70.90
73777;DHT22;62088;50.240;2.696;2023-08-06T11:15:04;18.20;70.60
73777;DHT22;62088;50.240;2.696;2023-08-06T11:17:33;18.20;70.90
73777;DHT22;62088;50.240;2.696;2023-08-06T11:20:02;18.30;71.10
73777;DHT22;62088;50.240;2.696;2023-08-06T11:22:29;18.40;71.00
73777;DHT22;62088;50.240;2.696;2023-08-06T11:24:57;18.40;70.50
73777;DHT22;62088;50.240;2.696;2023-08-06T11:27:26;18.50;69.40
73777;DHT22;62088;50.240;2.696;2023-08-06T11:29:53;18.60;69.30
73777;DHT22;62088;50.240;2.696;2023-08-06T11:32:20;18.70;69.80
73777;DHT22;62088;50.240;2.696;2023-08-06T11:34:47;18.80;70.00
73777;DHT22;62088;50.240;2.696;2023-08-06T11:37:15;18.90;68.40
73777;DHT22;62088;50.240;2.696;2023-08-06T11:39:46;18.90;68.20
73777;DHT22;62088;50.240;2.696;2023-08-06T11:42:15;18.90;68.30
73777;DHT22;62088;50.240;2.696;2023-08-06T11:44:42;19.00;68.50
73777;DHT22;62088;50.240;2.696;2023-08-06T11:47:14;19.10;68.40
73777;DHT22;62088;50.240;2.696;2023-08-06T11:49:49;19.20;68.50
73777;DHT22;62088;50.240;2.696;2023-08-06T11:52:20;19.30;68.10
73777;DHT22;62088;50.240;2.696;2023-08-06T11:55:09;19.40;67.30
73777;DHT22;62088;50.240;2.696;2023-08-06T11:57:44;19.40;67.00
73777;DHT22;62088;50.240;2.696;2023-08-06T12:00:13;19.50;67.00
73777;DHT22;62088;50.240;2.696;2023-08-06T12:02:45;19.60;67.10
73777;DHT22;62088;50.240;2.696;2023-08-06T12:05:13;19.70;67.20
73777;DHT22;62088;50.240;2.696;2023-08-06T12:07:45;19.80;66.90
73777;DHT22;62088;50.240;2.696;2023-08-06T12:10:13;19.90;66.90
73777;DHT22;62088;50.240;2.696;2023-08-06T12:12:41;19.90;66.50
73777;DHT22;62088;50.240;2.696;2023-08-06T12:15:09;20.10;66.00
73777;DHT22;62088;50.240;2.696;2023-08-06T12:35:54;20.40;64.10
73777;DHT22;62088;50.240;2.696;2023-08-06T12:38:22;20.50;62.70
73777;DHT22;62088;50.240;2.696;2023-08-06T12:51:55;20.60;62.70
73777;DHT22;62088;50.240;2.696;2023-08-06T12:54:23;20.60;61.90
73777;DHT22;62088;50.240;2.696;2023-08-06T12:56:50;20.50;62.00
73777;DHT22;62088;50.240;2.696;2023-08-06T12:59:18;20.40;61.90
73777;DHT22;62088;50.240;2.696;2023-08-06T13:01:45;20.40;62.10
73777;DHT22;62088;50.240;2.696;2023-08-06T13:04:13;20.40;62.10
73777;DHT22;62088;50.240;2.696;2023-08-06T13:06:48;20.40;61.90
73777;DHT22;62088;50.240;2.696;2023-08-06T13:09:16;20.40;61.90
73777;DHT22;62088;50.240;2.696;2023-08-06T13:11:43;20.30;61.90
73777;DHT22;62088;50.240;2.696;2023-08-06T13:14:14;20.40;61.90
73777;DHT22;62088;50.240;2.696;2023-08-06T13:16:42;20.40;61.30
73777;DHT22;62088;50.240;2.696;2023-08-06T13:19:10;20.30;61.20
73777;DHT22;62088;50.240;2.696;2023-08-06T13:24:08;20.20;61.10
73777;DHT22;62088;50.240;2.696;2023-08-06T13:26:35;20.20;60.70
73777;DHT22;62088;50.240;2.696;2023-08-06T13:29:03;20.10;60.90
73777;DHT22;62088;50.240;2.696;2023-08-06T13:31:30;20.00;61.30
73777;DHT22;62088;50.240;2.696;2023-08-06T13:33:57;19.90;61.20
73777;DHT22;62088;50.240;2.696;2023-08-06T13:36:26;19.80;61.50
73777;DHT22;62088;50.240;2.696;2023-08-06T13:38:53;19.80;61.80
73777;DHT22;62088;50.240;2.696;2023-08-06T13:41:21;19.80;62.40
73777;DHT22;62088;50.240;2.696;2023-08-06T13:43:48;19.80;62.70
73777;DHT22;62088;50.240;2.696;2023-08-06T13:46:15;19.70;62.40
73777;DHT22;62088;50.240;2.696;2023-08-06T13:48:48;19.70;62.30
73777;DHT22;62088;50.240;2.696;2023-08-06T13:51:18;19.70;62.40
73777;DHT22;62088;50.240;2.696;2023-08-06T13:53:45;19.80;62.70
73777;DHT22;62088;50.240;2.696;2023-08-06T13:56:13;19.70;62.80
73777;DHT22;62088;50.240;2.696;2023-08-06T13:58:42;19.70;62.90
73777;DHT22;62088;50.240;2.696;2023-08-06T14:01:13;19.70;62.50
73777;DHT22;62088;50.240;2.696;2023-08-06T14:03:40;19.70;62.70
73777;DHT22;62088;50.240;2.696;2023-08-06T14:06:07;19.70;62.80
73777;DHT22;62088;50.240;2.696;2023-08-06T14:08:34;19.60;62.80
73777;DHT22;62088;50.240;2.696;2023-08-06T14:11:01;19.50;62.40
73777;DHT22;62088;50.240;2.696;2023-08-06T14:13:28;19.50;62.40
73777;DHT22;62088;50.240;2.696;2023-08-06T14:15:55;19.50;63.00
73777;DHT22;62088;50.240;2.696;2023-08-06T14:18:22;19.50;63.10
73777;DHT22;62088;50.240;2.696;2023-08-06T14:20:49;19.60;63.40
73777;DHT22;62088;50.240;2.696;2023-08-06T14:23:16;19.60;63.30
73777;DHT22;62088;50.240;2.696;2023-08-06T14:25:43;19.60;63.20
73777;DHT22;62088;50.240;2.696;2023-08-06T14:28:10;19.60;63.00
73777;DHT22;62088;50.240;2.696;2023-08-06T14:30:37;19.70;63.00
73777;DHT22;62088;50.240;2.696;2023-08-06T14:33:04;19.70;63.20
73777;DHT22;62088;50.240;2.696;2023-08-06T14:35:51;19.70;62.60
73777;DHT22;62088;50.240;2.696;2023-08-06T14:38:19;19.70;62.50
73777;DHT22;62088;50.240;2.696;2023-08-06T14:40:46;19.70;62.70
73777;DHT22;62088;50.240;2.696;2023-08-06T14:43:13;19.60;62.70
73777;DHT22;62088;50.240;2.696;2023-08-06T14:45:41;19.60;63.00
73777;DHT22;62088;50.240;2.696;2023-08-06T14:48:08;19.60;63.30
73777;DHT22;62088;50.240;2.696;2023-08-06T14:50:36;19.50;63.60
73777;DHT22;62088;50.240;2.696;2023-08-06T14:53:03;19.40;63.70
73777;DHT22;62088;50.240;2.696;2023-08-06T14:55:32;19.40;64.00
73777;DHT22;62088;50.240;2.696;2023-08-06T14:58:00;19.20;64.30
73777;DHT22;62088;50.240;2.696;2023-08-06T15:00:28;19.10;64.90
73777;DHT22;62088;50.240;2.696;2023-08-06T15:02:55;19.00;65.30
73777;DHT22;62088;50.240;2.696;2023-08-06T15:05:22;18.90;65.90
73777;DHT22;62088;50.240;2.696;2023-08-06T15:07:49;18.90;66.70
73777;DHT22;62088;50.240;2.696;2023-08-06T15:10:16;18.90;67.00
73777;DHT22;62088;50.240;2.696;2023-08-06T15:12:46;19.00;67.40
73777;DHT22;62088;50.240;2.696;2023-08-06T15:15:14;19.10;67.60
73777;DHT22;62088;50.240;2.696;2023-08-06T15:17:41;19.10;67.40
73777;DHT22;62088;50.240;2.696;2023-08-06T15:20:08;19.10;67.20
73777;DHT22;62088;50.240;2.696;2023-08-06T15:22:35;19.10;67.20
73777;DHT22;62088;50.240;2.696;2023-08-06T15:25:03;19.10;67.30
73777;DHT22;62088;50.240;2.696;2023-08-06T15:27:30;19.10;67.60
73777;DHT22;62088;50.240;2.696;2023-08-06T15:29:59;19.10;67.60
73777;DHT22;62088;50.240;2.696;2023-08-06T15:32:26;19.00;67.40
73777;DHT22;62088;50.240;2.696;2023-08-06T15:34:54;19.00;67.40
73777;DHT22;62088;50.240;2.696;2023-08-06T15:37:22;18.90;67.60
73777;DHT22;62088;50.240;2.696;2023-08-06T15:39:49;18.90;68.00
73777;DHT22;62088;50.240;2.696;2023-08-06T15:42:16;18.90;68.20
73777;DHT22;62088;50.240;2.696;2023-08-06T15:44:43;19.00;68.30
73777;DHT22;62088;50.240;2.696;2023-08-06T15:47:10;19.10;68.10
73777;DHT22;62088;50.240;2.696;2023-08-06T15:49:39;19.10;68.10
73777;DHT22;62088;50.240;2.696;2023-08-06T15:52:06;19.20;67.80
73777;DHT22;62088;50.240;2.696;2023-08-06T15:54:33;19.30;67.50
73777;DHT22;62088;50.240;2.696;2023-08-06T15:57:01;19.30;67.40
73777;DHT22;62088;50.240;2.696;2023-08-06T15:59:30;19.20;67.30
73777;DHT22;62088;50.240;2.696;2023-08-06T16:01:58;19.30;67.30
73777;DHT22;62088;50.240;2.696;2023-08-06T16:04:26;19.30;67.50
73777;DHT22;62088;50.240;2.696;2023-08-06T16:06:54;19.30;67.60
73777;DHT22;62088;50.240;2.696;2023-08-06T16:09:21;19.40;67.90
73777;DHT22;62088;50.240;2.696;2023-08-06T16:11:52;19.40;67.80
73777;DHT22;62088;50.240;2.696;2023-08-06T16:14:20;19.50;67.70
73777;DHT22;62088;50.240;2.696;2023-08-06T16:16:47;19.60;67.50
73777;DHT22;62088;50.240;2.696;2023-08-06T16:19:14;19.70;67.00
73777;DHT22;62088;50.240;2.696;2023-08-06T16:21:42;19.60;66.60
73777;DHT22;62088;50.240;2.696;2023-08-06T16:24:09;19.60;66.40
73777;DHT22;62088;50.240;2.696;2023-08-06T16:26:36;19.60;66.40
73777;DHT22;62088;50.240;2.696;2023-08-06T16:29:03;19.50;66.50
73777;DHT22;62088;50.240;2.696;2023-08-06T16:31:31;19.40;66.60